sensor_id;sensor_type;location;lat;lon;timestamp;P1;durP1;ratioP1;P2;durP2;ratioP2
15342;SDS011;7771;48.478;8.936;2022-08-19T00:02:13;14.15;;;12.57;;
15342;SDS011;7771;48.478;8.936;2022-08-19T00:04:39;14.00;;;12.50;;
15342;SDS011;7771;48.478;8.936;2022-08-19T00:07:07;13.82;;;12.50;;
15342;SDS011;7771;48.478;8.936;2022-08-19T00:09:33;14.38;;;12.85;;
15342;SDS011;7771;48.478;8.936;2022-08-19T00:12:00;14.80;;;13.18;;
15342;SDS011;7771;48.478;8.936;2022-08-19T00:14:27;15.70;;;14.15;;
15342;SDS011;7771;48.478;8.936;2022-08-19T00:16:53;16.40;;;13.45;;
15342;SDS011;7771;48.478;8.936;2022-08-19T00:19:20;15.10;;;13.48;;
15342;SDS011;7771;48.478;8.936;2022-08-19T00:21:47;15.82;;;14.07;;
15342;SDS011;7771;48.478;8.936;2022-08-19T00:24:14;16.20;;;14.18;;
15342;SDS011;7771;48.478;8.936;2022-08-19T00:26:41;16.25;;;14.48;;
15342;SDS011;7771;48.478;8.936;2022-08-19T00:29:09;16.90;;;15.15;;
15342;SDS011;7771;48.478;8.936;2022-08-19T00:31:34;16.27;;;14.50;;
15342;SDS011;7771;48.478;8.936;2022-08-19T00:34:00;16.55;;;14.80;;
15342;SDS011;7771;48.478;8.936;2022-08-19T00:36:28;16.92;;;15.23;;
15342;SDS011;7771;48.478;8.936;2022-08-19T00:38:55;16.48;;;14.77;;
15342;SDS011;7771;48.478;8.936;2022-08-19T00:41:23;16.75;;;15.07;;
15342;SDS011;7771;48.478;8.936;2022-08-19T00:46:29;16.75;;;15.15;;
15342;SDS011;7771;48.478;8.936;2022-08-19T00:48:56;17.70;;;15.85;;
15342;SDS011;7771;48.478;8.936;2022-08-19T00:51:24;16.27;;;14.60;;
15342;SDS011;7771;48.478;8.936;2022-08-19T00:53:49;16.80;;;15.02;;
15342;SDS011;7771;48.478;8.936;2022-08-19T00:56:16;17.73;;;15.88;;
15342;SDS011;7771;48.478;8.936;2022-08-19T00:58:42;17.37;;;15.75;;
15342;SDS011;7771;48.478;8.936;2022-08-19T01:01:09;17.37;;;15.38;;
15342;SDS011;7771;48.478;8.936;2022-08-19T01:03:36;17.73;;;15.82;;
15342;SDS011;7771;48.478;8.936;2022-08-19T01:06:04;18.45;;;16.55;;
15342;SDS011;7771;48.478;8.936;2022-08-19T01:08:30;20.45;;;16.00;;
15342;SDS011;7771;48.478;8.936;2022-08-19T01:10:58;18.45;;;16.45;;
15342;SDS011;7771;48.478;8.936;2022-08-19T01:13:26;18.10;;;16.27;;
15342;SDS011;7771;48.478;8.936;2022-08-19T01:15:54;18.15;;;16.25;;
15342;SDS011;7771;48.478;8.936;2022-08-19T01:18:27;18.25;;;16.30;;
15342;SDS011;7771;48.478;8.936;2022-08-19T01:20:56;20.85;;;17.23;;
15342;SDS011;7771;48.478;8.936;2022-08-19T01:23:22;22.35;;;17.35;;
15342;SDS011;7771;48.478;8.936;2022-08-19T01:25:50;17.42;;;15.38;;
15342;SDS011;7771;48.478;8.936;2022-08-19T01:28:20;18.08;;;16.23;;
15342;SDS011;7771;48.478;8.936;2022-08-19T01:30:45;18.92;;;17.02;;
15342;SDS011;7771;48.478;8.936;2022-08-19T01:33:13;21.33;;;17.05;;
15342;SDS011;7771;48.478;8.936;2022-08-19T01:35:40;21.52;;;17.27;;
15342;SDS011;7771;48.478;8.936;2022-08-19T01:38:07;19.62;;;17.52;;
15342;SDS011;7771;48.478;8.936;2022-08-19T01:40:34;20.37;;;17.83;;
15342;SDS011;7771;48.478;8.936;2022-08-19T01:43:00;23.12;;;17.05;;
15342;SDS011;7771;48.478;8.936;2022-08-19T01:45:27;22.10;;;16.83;;
15342;SDS011;7771;48.478;8.936;2022-08-19T01:47:54;22.52;;;18.45;;
15342;SDS011;7771;48.478;8.936;2022-08-19T01:50:21;24.83;;;17.55;;
15342;SDS011;7771;48.478;8.936;2022-08-19T01:52:48;21.73;;;17.65;;
15342;SDS011;7771;48.478;8.936;2022-08-19T01:55:16;22.37;;;17.52;;
15342;SDS011;7771;48.478;8.936;2022-08-19T01:57:44;21.17;;;17.58;;
15342;SDS011;7771;48.478;8.936;2022-08-19T02:00:10;22.40;;;18.52;;
15342;SDS011;7771;48.478;8.936;2022-08-19T02:02:36;22.10;;;18.23;;
15342;SDS011;7771;48.478;8.936;2022-08-19T02:05:04;20.10;;;16.15;;
15342;SDS011;7771;48.478;8.936;2022-08-19T02:07:30;20.08;;;16.35;;
15342;SDS011;7771;48.478;8.936;2022-08-19T02:09:57;19.62;;;17.02;;
15342;SDS011;7771;48.478;8.936;2022-08-19T02:12:23;20.83;;;17.73;;
15342;SDS011;7771;48.478;8.936;2022-08-19T02:14:50;20.55;;;17.58;;
15342;SDS011;7771;48.478;8.936;2022-08-19T02:17:17;22.37;;;16.58;;
15342;SDS011;7771;48.478;8.936;2022-08-19T02:19:45;20.42;;;17.20;;
15342;SDS011;7771;48.478;8.936;2022-08-19T02:22:12;18.17;;;16.25;;
15342;SDS011;7771;48.478;8.936;2022-08-19T02:24:39;21.50;;;17.83;;
15342;SDS011;7771;48.478;8.936;2022-08-19T02:27:05;25.30;;;17.80;;
15342;SDS011;7771;48.478;8.936;2022-08-19T02:29:32;20.00;;;17.25;;
15342;SDS011;7771;48.478;8.936;2022-08-19T02:31:58;25.80;;;18.20;;
15342;SDS011;7771;48.478;8.936;2022-08-19T02:34:25;24.17;;;18.85;;
15342;SDS011;7771;48.478;8.936;2022-08-19T02:36:52;21.37;;;18.10;;
15342;SDS011;7771;48.478;8.936;2022-08-19T02:39:19;25.27;;;17.77;;
15342;SDS011;7771;48.478;8.936;2022-08-19T02:41:46;24.92;;;17.77;;
15342;SDS011;7771;48.478;8.936;2022-08-19T02:44:12;24.92;;;18.55;;
15342;SDS011;7771;48.478;8.936;2022-08-19T02:46:39;19.55;;;17.20;;
15342;SDS011;7771;48.478;8.936;2022-08-19T02:49:07;25.70;;;17.87;;
15342;SDS011;7771;48.478;8.936;2022-08-19T02:51:35;23.27;;;17.15;;
15342;SDS011;7771;48.478;8.936;2022-08-19T02:54:00;26.30;;;18.60;;
15342;SDS011;7771;48.478;8.936;2022-08-19T02:56:28;23.75;;;18.87;;
15342;SDS011;7771;48.478;8.936;2022-08-19T02:58:55;21.83;;;17.33;;
15342;SDS011;7771;48.478;8.936;2022-08-19T03:01:22;23.98;;;18.58;;
15342;SDS011;7771;48.478;8.936;2022-08-19T03:03:49;20.52;;;18.20;;
15342;SDS011;7771;48.478;8.936;2022-08-19T03:06:16;20.85;;;17.27;;
15342;SDS011;7771;48.478;8.936;2022-08-19T03:08:44;20.73;;;18.25;;
15342;SDS011;7771;48.478;8.936;2022-08-19T03:11:14;21.42;;;18.33;;
15342;SDS011;7771;48.478;8.936;2022-08-19T03:13:42;20.35;;;17.15;;
15342;SDS011;7771;48.478;8.936;2022-08-19T03:16:10;23.17;;;18.30;;
15342;SDS011;7771;48.478;8.936;2022-08-19T03:18:36;22.27;;;17.80;;
15342;SDS011;7771;48.478;8.936;2022-08-19T03:21:03;22.08;;;18.42;;
15342;SDS011;7771;48.478;8.936;2022-08-19T03:23:30;22.92;;;17.52;;
15342;SDS011;7771;48.478;8.936;2022-08-19T03:25:56;22.15;;;17.87;;
15342;SDS011;7771;48.478;8.936;2022-08-19T03:28:23;26.20;;;18.35;;
15342;SDS011;7771;48.478;8.936;2022-08-19T03:30:55;22.95;;;18.58;;
15342;SDS011;7771;48.478;8.936;2022-08-19T03:33:36;23.05;;;18.95;;
15342;SDS011;7771;48.478;8.936;2022-08-19T03:36:04;22.37;;;18.05;;
15342;SDS011;7771;48.478;8.936;2022-08-19T03:38:29;23.60;;;18.08;;
15342;SDS011;7771;48.478;8.936;2022-08-19T03:40:57;24.25;;;19.08;;
15342;SDS011;7771;48.478;8.936;2022-08-19T03:43:23;23.50;;;18.80;;
15342;SDS011;7771;48.478;8.936;2022-08-19T03:45:59;24.70;;;18.08;;
15342;SDS011;7771;48.478;8.936;2022-08-19T03:48:17;27.05;;;19.25;;
15342;SDS011;7771;48.478;8.936;2022-08-19T03:50:44;22.90;;;18.83;;
15342;SDS011;7771;48.478;8.936;2022-08-19T03:53:11;22.92;;;18.77;;
15342;SDS011;7771;48.478;8.936;2022-08-19T03:55:39;24.45;;;19.52;;
15342;SDS011;7771;48.478;8.936;2022-08-19T03:58:05;23.95;;;19.58;;
15342;SDS011;7771;48.478;8.936;2022-08-19T04:00:32;24.90;;;19.62;;
15342;SDS011;7771;48.478;8.936;2022-08-19T04:02:59;21.92;;;18.52;;
15342;SDS011;7771;48.478;8.936;2022-08-19T04:05:27;24.67;;;19.27;;
15342;SDS011;7771;48.478;8.936;2022-08-19T04:07:53;25.12;;;19.55;;
15342;SDS011;7771;48.478;8.936;2022-08-19T04:10:20;25.17;;;19.70;;
15342;SDS011;7771;48.478;8.936;2022-08-19T04:12:47;27.05;;;19.55;;
15342;SDS011;7771;48.478;8.936;2022-08-19T04:15:14;25.02;;;19.02;;
15342;SDS011;7771;48.478;8.936;2022-08-19T04:17:40;24.23;;;19.40;;
15342;SDS011;7771;48.478;8.936;2022-08-19T04:20:07;24.85;;;19.58;;
15342;SDS011;7771;48.478;8.936;2022-08-19T04:22:34;23.27;;;19.77;;
15342;SDS011;7771;48.478;8.936;2022-08-19T04:25:00;24.98;;;19.08;;
15342;SDS011;7771;48.478;8.936;2022-08-19T04:27:28;27.95;;;20.75;;
15342;SDS011;7771;48.478;8.936;2022-08-19T04:29:54;25.17;;;20.10;;
15342;SDS011;7771;48.478;8.936;2022-08-19T04:32:22;26.62;;;20.42;;
15342;SDS011;7771;48.478;8.936;2022-08-19T04:34:49;26.75;;;20.70;;
15342;SDS011;7771;48.478;8.936;2022-08-19T04:37:16;27.17;;;21.37;;
15342;SDS011;7771;48.478;8.936;2022-08-19T04:39:42;27.25;;;22.00;;
15342;SDS011;7771;48.478;8.936;2022-08-19T04:45:01;27.80;;;21.42;;
15342;SDS011;7771;48.478;8.936;2022-08-19T04:47:28;29.73;;;22.25;;
15342;SDS011;7771;48.478;8.936;2022-08-19T04:49:55;27.65;;;20.95;;
15342;SDS011;7771;48.478;8.936;2022-08-19T04:52:22;28.33;;;21.12;;
15342;SDS011;7771;48.478;8.936;2022-08-19T04:54:49;30.15;;;21.95;;
15342;SDS011;7771;48.478;8.936;2022-08-19T04:57:15;25.25;;;20.98;;
15342;SDS011;7771;48.478;8.936;2022-08-19T04:59:43;22.40;;;18.95;;
15342;SDS011;7771;48.478;8.936;2022-08-19T05:02:10;24.23;;;19.80;;
15342;SDS011;7771;48.478;8.936;2022-08-19T05:04:37;25.00;;;18.25;;
15342;SDS011;7771;48.478;8.936;2022-08-19T05:07:03;23.02;;;19.05;;
15342;SDS011;7771;48.478;8.936;2022-08-19T05:09:30;24.05;;;19.87;;
15342;SDS011;7771;48.478;8.936;2022-08-19T05:11:57;22.67;;;18.40;;
15342;SDS011;7771;48.478;8.936;2022-08-19T05:14:25;24.58;;;19.80;;
15342;SDS011;7771;48.478;8.936;2022-08-19T05:16:52;23.52;;;19.40;;
15342;SDS011;7771;48.478;8.936;2022-08-19T05:19:19;22.90;;;18.90;;
15342;SDS011;7771;48.478;8.936;2022-08-19T05:21:51;23.17;;;19.40;;
15342;SDS011;7771;48.478;8.936;2022-08-19T05:24:23;23.05;;;19.58;;
15342;SDS011;7771;48.478;8.936;2022-08-19T05:26:51;24.95;;;19.87;;
15342;SDS011;7771;48.478;8.936;2022-08-19T05:29:18;23.08;;;19.83;;
15342;SDS011;7771;48.478;8.936;2022-08-19T05:31:43;24.12;;;19.42;;
15342;SDS011;7771;48.478;8.936;2022-08-19T05:34:10;24.90;;;19.45;;
15342;SDS011;7771;48.478;8.936;2022-08-19T05:36:40;25.88;;;19.05;;
15342;SDS011;7771;48.478;8.936;2022-08-19T05:39:06;25.50;;;19.50;;
15342;SDS011;7771;48.478;8.936;2022-08-19T05:41:32;24.90;;;20.00;;
15342;SDS011;7771;48.478;8.936;2022-08-19T05:44:03;25.95;;;19.92;;
15342;SDS011;7771;48.478;8.936;2022-08-19T05:46:28;22.62;;;19.20;;
15342;SDS011;7771;48.478;8.936;2022-08-19T05:48:55;24.35;;;19.83;;
15342;SDS011;7771;48.478;8.936;2022-08-19T05:51:22;24.37;;;18.83;;
15342;SDS011;7771;48.478;8.936;2022-08-19T05:53:49;26.48;;;20.52;;
15342;SDS011;7771;48.478;8.936;2022-08-19T05:56:16;23.67;;;19.08;;
15342;SDS011;7771;48.478;8.936;2022-08-19T05:58:44;23.80;;;18.60;;
15342;SDS011;7771;48.478;8.936;2022-08-19T06:01:12;26.12;;;19.25;;
15342;SDS011;7771;48.478;8.936;2022-08-19T06:03:38;23.92;;;18.30;;
15342;SDS011;7771;48.478;8.936;2022-08-19T06:06:04;22.40;;;18.95;;
15342;SDS011;7771;48.478;8.936;2022-08-19T06:08:31;23.92;;;19.08;;
15342;SDS011;7771;48.478;8.936;2022-08-19T06:10:57;23.02;;;19.55;;
15342;SDS011;7771;48.478;8.936;2022-08-19T06:13:24;23.85;;;19.00;;
15342;SDS011;7771;48.478;8.936;2022-08-19T06:15:51;24.98;;;19.75;;
15342;SDS011;7771;48.478;8.936;2022-08-19T06:18:18;24.58;;;19.23;;
15342;SDS011;7771;48.478;8.936;2022-08-19T06:20:45;22.45;;;19.08;;
15342;SDS011;7771;48.478;8.936;2022-08-19T06:23:12;23.58;;;19.60;;
15342;SDS011;7771;48.478;8.936;2022-08-19T06:25:39;24.20;;;19.42;;
15342;SDS011;7771;48.478;8.936;2022-08-19T06:28:06;25.10;;;20.12;;
15342;SDS011;7771;48.478;8.936;2022-08-19T06:30:33;26.60;;;20.42;;
15342;SDS011;7771;48.478;8.936;2022-08-19T06:33:01;29.17;;;20.12;;
15342;SDS011;7771;48.478;8.936;2022-08-19T06:35:28;24.87;;;19.12;;
15342;SDS011;7771;48.478;8.936;2022-08-19T06:37:54;25.80;;;22.10;;
15342;SDS011;7771;48.478;8.936;2022-08-19T06:40:21;24.77;;;19.98;;
15342;SDS011;7771;48.478;8.936;2022-08-19T06:42:48;26.48;;;19.62;;
15342;SDS011;7771;48.478;8.936;2022-08-19T06:45:15;24.73;;;20.33;;
15342;SDS011;7771;48.478;8.936;2022-08-19T06:47:43;25.95;;;21.05;;
15342;SDS011;7771;48.478;8.936;2022-08-19T06:50:10;27.00;;;19.77;;
15342;SDS011;7771;48.478;8.936;2022-08-19T06:52:36;24.60;;;20.05;;
15342;SDS011;7771;48.478;8.936;2022-08-19T06:55:03;24.63;;;19.70;;
15342;SDS011;7771;48.478;8.936;2022-08-19T06:57:30;26.77;;;19.80;;
15342;SDS011;7771;48.478;8.936;2022-08-19T06:59:57;23.30;;;19.55;;
15342;SDS011;7771;48.478;8.936;2022-08-19T07:02:24;23.98;;;19.77;;
15342;SDS011;7771;48.478;8.936;2022-08-19T07:04:52;26.92;;;21.20;;
15342;SDS011;7771;48.478;8.936;2022-08-19T07:07:18;28.02;;;20.55;;
15342;SDS011;7771;48.478;8.936;2022-08-19T07:09:45;28.60;;;22.23;;
15342;SDS011;7771;48.478;8.936;2022-08-19T07:12:12;25.17;;;20.50;;
15342;SDS011;7771;48.478;8.936;2022-08-19T07:14:38;26.40;;;21.02;;
15342;SDS011;7771;48.478;8.936;2022-08-19T07:17:07;29.20;;;22.20;;
15342;SDS011;7771;48.478;8.936;2022-08-19T07:19:33;27.75;;;22.20;;
15342;SDS011;7771;48.478;8.936;2022-08-19T07:22:01;28.52;;;21.65;;
15342;SDS011;7771;48.478;8.936;2022-08-19T07:24:28;30.35;;;23.55;;
15342;SDS011;7771;48.478;8.936;2022-08-19T07:26:55;31.02;;;23.05;;
15342;SDS011;7771;48.478;8.936;2022-08-19T07:29:24;29.10;;;23.25;;
15342;SDS011;7771;48.478;8.936;2022-08-19T07:31:51;25.90;;;21.60;;
15342;SDS011;7771;48.478;8.936;2022-08-19T07:34:18;26.23;;;20.88;;
15342;SDS011;7771;48.478;8.936;2022-08-19T07:36:44;27.80;;;20.83;;
15342;SDS011;7771;48.478;8.936;2022-08-19T07:39:12;24.50;;;20.95;;
15342;SDS011;7771;48.478;8.936;2022-08-19T07:41:38;28.55;;;23.17;;
15342;SDS011;7771;48.478;8.936;2022-08-19T07:44:06;30.25;;;24.67;;
15342;SDS011;7771;48.478;8.936;2022-08-19T07:46:33;30.70;;;22.85;;
15342;SDS011;7771;48.478;8.936;2022-08-19T07:48:58;29.58;;;25.30;;
15342;SDS011;7771;48.478;8.936;2022-08-19T07:51:25;28.27;;;23.23;;
15342;SDS011;7771;48.478;8.936;2022-08-19T07:53:52;30.98;;;23.62;;
15342;SDS011;7771;48.478;8.936;2022-08-19T07:56:19;27.08;;;22.95;;
15342;SDS011;7771;48.478;8.936;2022-08-19T07:58:46;31.20;;;24.05;;
15342;SDS011;7771;48.478;8.936;2022-08-19T08:01:14;30.37;;;24.08;;
15342;SDS011;7771;48.478;8.936;2022-08-19T08:03:39;29.85;;;22.87;;
15342;SDS011;7771;48.478;8.936;2022-08-19T08:06:12;29.63;;;22.60;;
15342;SDS011;7771;48.478;8.936;2022-08-19T08:08:44;26.25;;;22.10;;
15342;SDS011;7771;48.478;8.936;2022-08-19T08:11:17;30.85;;;23.67;;
15342;SDS011;7771;48.478;8.936;2022-08-19T08:13:43;29.25;;;22.40;;
15342;SDS011;7771;48.478;8.936;2022-08-19T08:16:09;26.55;;;20.42;;
15342;SDS011;7771;48.478;8.936;2022-08-19T08:18:36;24.95;;;21.10;;
15342;SDS011;7771;48.478;8.936;2022-08-19T08:21:02;26.70;;;21.67;;
15342;SDS011;7771;48.478;8.936;2022-08-19T08:23:29;24.27;;;21.08;;
15342;SDS011;7771;48.478;8.936;2022-08-19T08:25:57;27.05;;;21.45;;
15342;SDS011;7771;48.478;8.936;2022-08-19T08:28:24;23.55;;;20.67;;
15342;SDS011;7771;48.478;8.936;2022-08-19T08:30:50;25.60;;;20.27;;
15342;SDS011;7771;48.478;8.936;2022-08-19T08:33:18;25.10;;;20.20;;
15342;SDS011;7771;48.478;8.936;2022-08-19T08:35:45;26.33;;;21.17;;
15342;SDS011;7771;48.478;8.936;2022-08-19T08:38:12;22.98;;;19.80;;
15342;SDS011;7771;48.478;8.936;2022-08-19T08:40:43;24.48;;;18.73;;
15342;SDS011;7771;48.478;8.936;2022-08-19T08:43:07;21.60;;;19.33;;
15342;SDS011;7771;48.478;8.936;2022-08-19T08:45:35;21.00;;;17.35;;
15342;SDS011;7771;48.478;8.936;2022-08-19T08:48:02;22.48;;;17.65;;
15342;SDS011;7771;48.478;8.936;2022-08-19T08:50:32;22.25;;;17.58;;
15342;SDS011;7771;48.478;8.936;2022-08-19T08:52:58;22.27;;;18.25;;
15342;SDS011;7771;48.478;8.936;2022-08-19T08:55:26;19.90;;;17.12;;
15342;SDS011;7771;48.478;8.936;2022-08-19T08:57:53;20.52;;;17.37;;
15342;SDS011;7771;48.478;8.936;2022-08-19T09:00:22;19.77;;;16.37;;
15342;SDS011;7771;48.478;8.936;2022-08-19T09:02:48;23.05;;;18.15;;
15342;SDS011;7771;48.478;8.936;2022-08-19T09:05:15;20.67;;;17.55;;
15342;SDS011;7771;48.478;8.936;2022-08-19T09:07:44;18.67;;;16.33;;
15342;SDS011;7771;48.478;8.936;2022-08-19T09:10:20;19.80;;;17.67;;
15342;SDS011;7771;48.478;8.936;2022-08-19T09:12:47;20.35;;;17.73;;
15342;SDS011;7771;48.478;8.936;2022-08-19T09:15:13;20.62;;;18.17;;
15342;SDS011;7771;48.478;8.936;2022-08-19T09:17:39;23.80;;;18.35;;
15342;SDS011;7771;48.478;8.936;2022-08-19T09:20:12;24.58;;;18.25;;
15342;SDS011;7771;48.478;8.936;2022-08-19T09:22:33;18.65;;;16.67;;
15342;SDS011;7771;48.478;8.936;2022-08-19T09:24:59;18.12;;;16.23;;
15342;SDS011;7771;48.478;8.936;2022-08-19T09:27:26;20.88;;;17.23;;
15342;SDS011;7771;48.478;8.936;2022-08-19T09:29:53;19.77;;;15.98;;
15342;SDS011;7771;48.478;8.936;2022-08-19T09:32:20;18.73;;;16.30;;
15342;SDS011;7771;48.478;8.936;2022-08-19T09:34:46;19.30;;;17.20;;
15342;SDS011;7771;48.478;8.936;2022-08-19T09:37:13;17.37;;;15.60;;
15342;SDS011;7771;48.478;8.936;2022-08-19T09:39:40;18.30;;;16.17;;
15342;SDS011;7771;48.478;8.936;2022-08-19T09:42:07;20.58;;;16.75;;
15342;SDS011;7771;48.478;8.936;2022-08-19T09:44:33;19.48;;;16.42;;
15342;SDS011;7771;48.478;8.936;2022-08-19T09:47:00;21.05;;;17.50;;
15342;SDS011;7771;48.478;8.936;2022-08-19T09:49:27;18.45;;;15.98;;
15342;SDS011;7771;48.478;8.936;2022-08-19T09:51:58;19.23;;;16.50;;
15342;SDS011;7771;48.478;8.936;2022-08-19T09:54:25;21.33;;;17.98;;
15342;SDS011;7771;48.478;8.936;2022-08-19T09:56:52;20.58;;;17.65;;
15342;SDS011;7771;48.478;8.936;2022-08-19T09:59:18;20.20;;;17.17;;
15342;SDS011;7771;48.478;8.936;2022-08-19T10:01:46;22.92;;;20.02;;
15342;SDS011;7771;48.478;8.936;2022-08-19T10:04:12;21.87;;;18.65;;
15342;SDS011;7771;48.478;8.936;2022-08-19T10:06:39;24.20;;;20.05;;
15342;SDS011;7771;48.478;8.936;2022-08-19T10:09:06;27.13;;;20.10;;
15342;SDS011;7771;48.478;8.936;2022-08-19T10:11:33;23.48;;;19.58;;
15342;SDS011;7771;48.478;8.936;2022-08-19T10:14:01;24.55;;;20.85;;
15342;SDS011;7771;48.478;8.936;2022-08-19T10:16:27;24.87;;;19.95;;
15342;SDS011;7771;48.478;8.936;2022-08-19T10:18:54;25.42;;;21.02;;
15342;SDS011;7771;48.478;8.936;2022-08-19T10:21:22;23.35;;;20.70;;
15342;SDS011;7771;48.478;8.936;2022-08-19T10:23:49;26.05;;;20.65;;
15342;SDS011;7771;48.478;8.936;2022-08-19T10:26:18;26.12;;;20.23;;
15342;SDS011;7771;48.478;8.936;2022-08-19T10:28:43;23.10;;;19.42;;
15342;SDS011;7771;48.478;8.936;2022-08-19T10:31:12;22.00;;;19.33;;
15342;SDS011;7771;48.478;8.936;2022-08-19T10:33:39;21.27;;;19.02;;
15342;SDS011;7771;48.478;8.936;2022-08-19T10:36:08;23.67;;;20.10;;
15342;SDS011;7771;48.478;8.936;2022-08-19T10:38:33;22.42;;;18.98;;
15342;SDS011;7771;48.478;8.936;2022-08-19T10:41:07;21.37;;;19.00;;
15342;SDS011;7771;48.478;8.936;2022-08-19T10:43:33;22.70;;;19.50;;
15342;SDS011;7771;48.478;8.936;2022-08-19T10:46:01;23.35;;;18.77;;
15342;SDS011;7771;48.478;8.936;2022-08-19T10:48:28;22.35;;;19.00;;
15342;SDS011;7771;48.478;8.936;2022-08-19T10:50:56;22.85;;;19.58;;
15342;SDS011;7771;48.478;8.936;2022-08-19T10:53:27;23.92;;;19.40;;
15342;SDS011;7771;48.478;8.936;2022-08-19T10:55:54;23.98;;;19.42;;
15342;SDS011;7771;48.478;8.936;2022-08-19T10:58:26;22.48;;;20.10;;
15342;SDS011;7771;48.478;8.936;2022-08-19T11:00:54;22.08;;;19.55;;
15342;SDS011;7771;48.478;8.936;2022-08-19T11:03:20;23.10;;;19.98;;
15342;SDS011;7771;48.478;8.936;2022-08-19T11:05:47;28.30;;;23.08;;
15342;SDS011;7771;48.478;8.936;2022-08-19T11:08:13;24.05;;;21.30;;
15342;SDS011;7771;48.478;8.936;2022-08-19T11:10:41;24.80;;;22.20;;
15342;SDS011;7771;48.478;8.936;2022-08-19T11:13:08;24.23;;;20.37;;
15342;SDS011;7771;48.478;8.936;2022-08-19T11:15:34;23.23;;;19.87;;
15342;SDS011;7771;48.478;8.936;2022-08-19T11:18:01;24.40;;;20.40;;
15342;SDS011;7771;48.478;8.936;2022-08-19T11:20:27;21.98;;;19.62;;
15342;SDS011;7771;48.478;8.936;2022-08-19T11:22:55;24.27;;;19.73;;
15342;SDS011;7771;48.478;8.936;2022-08-19T11:25:22;24.45;;;19.10;;
15342;SDS011;7771;48.478;8.936;2022-08-19T11:27:49;22.23;;;19.77;;
15342;SDS011;7771;48.478;8.936;2022-08-19T11:30:15;24.42;;;19.85;;
15342;SDS011;7771;48.478;8.936;2022-08-19T11:32:42;22.33;;;20.12;;
15342;SDS011;7771;48.478;8.936;2022-08-19T11:35:08;22.95;;;19.60;;
15342;SDS011;7771;48.478;8.936;2022-08-19T11:37:35;23.40;;;20.05;;
15342;SDS011;7771;48.478;8.936;2022-08-19T11:40:02;23.20;;;20.00;;
15342;SDS011;7771;48.478;8.936;2022-08-19T11:42:29;21.95;;;19.60;;
15342;SDS011;7771;48.478;8.936;2022-08-19T11:45:02;21.12;;;18.37;;
15342;SDS011;7771;48.478;8.936;2022-08-19T11:47:29;21.87;;;19.70;;
15342;SDS011;7771;48.478;8.936;2022-08-19T11:49:55;24.02;;;19.15;;
15342;SDS011;7771;48.478;8.936;2022-08-19T11:52:22;20.80;;;18.52;;
15342;SDS011;7771;48.478;8.936;2022-08-19T11:54:49;20.75;;;18.55;;
15342;SDS011;7771;48.478;8.936;2022-08-19T11:57:16;20.88;;;18.70;;
15342;SDS011;7771;48.478;8.936;2022-08-19T11:59:48;22.27;;;18.98;;
15342;SDS011;7771;48.478;8.936;2022-08-19T12:02:13;21.17;;;18.87;;
15342;SDS011;7771;48.478;8.936;2022-08-19T12:04:40;22.65;;;18.98;;
15342;SDS011;7771;48.478;8.936;2022-08-19T12:07:07;22.73;;;20.00;;
15342;SDS011;7771;48.478;8.936;2022-08-19T12:09:34;23.65;;;20.08;;
15342;SDS011;7771;48.478;8.936;2022-08-19T12:12:01;21.42;;;19.20;;
15342;SDS011;7771;48.478;8.936;2022-08-19T12:14:29;21.80;;;19.55;;
15342;SDS011;7771;48.478;8.936;2022-08-19T12:19:31;22.25;;;19.85;;
15342;SDS011;7771;48.478;8.936;2022-08-19T12:21:59;21.45;;;19.33;;
15342;SDS011;7771;48.478;8.936;2022-08-19T12:24:26;22.85;;;20.45;;
15342;SDS011;7771;48.478;8.936;2022-08-19T12:26:52;24.15;;;19.75;;
15342;SDS011;7771;48.478;8.936;2022-08-19T12:29:20;21.60;;;19.08;;
15342;SDS011;7771;48.478;8.936;2022-08-19T12:31:46;23.65;;;20.02;;
15342;SDS011;7771;48.478;8.936;2022-08-19T12:34:13;21.58;;;19.25;;
15342;SDS011;7771;48.478;8.936;2022-08-19T12:36:40;23.67;;;19.10;;
15342;SDS011;7771;48.478;8.936;2022-08-19T12:39:08;22.70;;;19.60;;
15342;SDS011;7771;48.478;8.936;2022-08-19T12:41:35;22.13;;;19.77;;
15342;SDS011;7771;48.478;8.936;2022-08-19T12:44:02;21.50;;;18.85;;
15342;SDS011;7771;48.478;8.936;2022-08-19T12:46:28;20.80;;;18.45;;
15342;SDS011;7771;48.478;8.936;2022-08-19T12:48:56;22.20;;;19.17;;
15342;SDS011;7771;48.478;8.936;2022-08-19T12:51:21;21.98;;;18.55;;
15342;SDS011;7771;48.478;8.936;2022-08-19T12:53:49;19.73;;;17.62;;
15342;SDS011;7771;48.478;8.936;2022-08-19T12:56:16;22.58;;;18.90;;
15342;SDS011;7771;48.478;8.936;2022-08-19T12:58:44;20.33;;;18.10;;
15342;SDS011;7771;48.478;8.936;2022-08-19T13:01:11;21.42;;;19.05;;
15342;SDS011;7771;48.478;8.936;2022-08-19T13:03:38;20.25;;;18.25;;
15342;SDS011;7771;48.478;8.936;2022-08-19T13:06:05;21.95;;;18.87;;
15342;SDS011;7771;48.478;8.936;2022-08-19T13:08:32;19.87;;;17.77;;
15342;SDS011;7771;48.478;8.936;2022-08-19T13:11:06;20.48;;;18.25;;
15342;SDS011;7771;48.478;8.936;2022-08-19T13:13:26;19.10;;;17.10;;
15342;SDS011;7771;48.478;8.936;2022-08-19T13:15:53;18.62;;;16.45;;
15342;SDS011;7771;48.478;8.936;2022-08-19T13:18:19;21.15;;;19.00;;
15342;SDS011;7771;48.478;8.936;2022-08-19T13:20:47;19.23;;;15.85;;
15342;SDS011;7771;48.478;8.936;2022-08-19T13:23:13;19.02;;;17.08;;
15342;SDS011;7771;48.478;8.936;2022-08-19T13:25:41;18.87;;;16.87;;
15342;SDS011;7771;48.478;8.936;2022-08-19T13:28:07;19.25;;;17.35;;
15342;SDS011;7771;48.478;8.936;2022-08-19T13:30:34;19.42;;;17.42;;
15342;SDS011;7771;48.478;8.936;2022-08-19T13:33:07;22.40;;;16.95;;
15342;SDS011;7771;48.478;8.936;2022-08-19T13:35:37;20.35;;;18.15;;
15342;SDS011;7771;48.478;8.936;2022-08-19T13:38:04;24.50;;;22.00;;
15342;SDS011;7771;48.478;8.936;2022-08-19T13:40:31;19.77;;;17.77;;
15342;SDS011;7771;48.478;8.936;2022-08-19T13:42:58;20.17;;;18.02;;
15342;SDS011;7771;48.478;8.936;2022-08-19T13:45:25;20.10;;;17.92;;
15342;SDS011;7771;48.478;8.936;2022-08-19T13:47:52;20.73;;;18.52;;
15342;SDS011;7771;48.478;8.936;2022-08-19T13:50:20;20.48;;;18.37;;
15342;SDS011;7771;48.478;8.936;2022-08-19T13:52:46;22.25;;;19.92;;
15342;SDS011;7771;48.478;8.936;2022-08-19T13:55:14;20.88;;;18.85;;
15342;SDS011;7771;48.478;8.936;2022-08-19T13:57:40;22.48;;;19.98;;
15342;SDS011;7771;48.478;8.936;2022-08-19T14:00:08;21.10;;;18.98;;
15342;SDS011;7771;48.478;8.936;2022-08-19T14:02:34;21.25;;;18.90;;
15342;SDS011;7771;48.478;8.936;2022-08-19T14:05:01;21.30;;;19.12;;
15342;SDS011;7771;48.478;8.936;2022-08-19T14:07:28;21.98;;;19.67;;
15342;SDS011;7771;48.478;8.936;2022-08-19T14:09:54;22.52;;;19.85;;
15342;SDS011;7771;48.478;8.936;2022-08-19T14:12:22;22.23;;;19.95;;
15342;SDS011;7771;48.478;8.936;2022-08-19T14:14:49;21.37;;;19.12;;
15342;SDS011;7771;48.478;8.936;2022-08-19T14:17:15;20.70;;;18.60;;
15342;SDS011;7771;48.478;8.936;2022-08-19T14:19:42;21.25;;;18.95;;
15342;SDS011;7771;48.478;8.936;2022-08-19T14:22:09;21.37;;;19.12;;
15342;SDS011;7771;48.478;8.936;2022-08-19T14:24:37;20.50;;;18.23;;
15342;SDS011;7771;48.478;8.936;2022-08-19T14:27:03;18.77;;;16.58;;
15342;SDS011;7771;48.478;8.936;2022-08-19T14:29:29;18.58;;;16.70;;
15342;SDS011;7771;48.478;8.936;2022-08-19T14:31:56;13.73;;;12.52;;
15342;SDS011;7771;48.478;8.936;2022-08-19T14:34:23;11.60;;;10.60;;
15342;SDS011;7771;48.478;8.936;2022-08-19T14:36:50;12.05;;;10.90;;
15342;SDS011;7771;48.478;8.936;2022-08-19T14:39:16;11.73;;;10.73;;
15342;SDS011;7771;48.478;8.936;2022-08-19T14:41:43;11.10;;;10.05;;